createdAt,value
2023-02-02T00:00:29.055Z,76.66
2023-02-02T00:01:32.830Z,76.82
2023-02-02T00:02:55.481Z,76.75
2023-02-02T00:04:00.426Z,76.74
2023-02-02T00:05:02.958Z,76.53
2023-02-02T00:06:05.954Z,76.77
2023-02-02T00:07:08.705Z,76.61
2023-02-02T00:08:11.393Z,76.89
2023-02-02T00:09:15.093Z,76.75
2023-02-02T00:10:18.359Z,76.87
2023-02-02T00:11:20.112Z,76.86
2023-02-02T00:12:22.599Z,77.00
2023-02-02T00:13:24.149Z,76.78
2023-02-02T00:14:26.979Z,76.97
2023-02-02T00:15:28.513Z,77.16
2023-02-02T00:16:40.207Z,76.99
2023-02-02T00:17:42.694Z,77.08
2023-02-02T00:18:44.227Z,77.22
2023-02-02T00:19:48.869Z,77.23
2023-02-02T00:20:50.477Z,77.00
2023-02-02T00:21:53.348Z,77.27
2023-02-02T00:22:55.344Z,77.24
2023-02-02T00:23:58.292Z,77.28
2023-02-02T00:24:59.823Z,77.27
2023-02-02T00:26:02.328Z,77.21
2023-02-02T00:27:04.980Z,77.46
2023-02-02T00:28:06.835Z,77.20
2023-02-02T00:29:15.130Z,77.46
2023-02-02T00:30:16.954Z,77.32
2023-02-02T00:31:19.509Z,77.49
2023-02-02T00:32:21.988Z,77.41
2023-02-02T00:33:23.496Z,77.44
2023-02-02T00:34:26.565Z,77.44
2023-02-02T00:35:30.051Z,77.70
2023-02-02T00:36:32.567Z,77.45
2023-02-02T00:37:34.493Z,77.57
2023-02-02T00:38:37.982Z,77.49
2023-02-02T00:39:40.480Z,77.71
2023-02-02T00:40:42.399Z,77.50
2023-02-02T00:41:45.208Z,77.41
2023-02-02T00:42:50.276Z,77.83
2023-02-02T00:44:06.762Z,77.66
2023-02-02T00:45:17.228Z,77.73
2023-02-02T00:46:18.941Z,77.92
2023-02-02T00:47:20.493Z,78.11
2023-02-02T00:48:22.982Z,78.24
2023-02-02T00:49:24.520Z,78.05
2023-02-02T00:50:27.401Z,78.26
2023-02-02T00:51:30.297Z,78.18
2023-02-02T00:52:32.798Z,78.34
2023-02-02T00:53:34.520Z,78.19
2023-02-02T00:54:37.010Z,78.39
2023-02-02T00:55:39.087Z,78.51
2023-02-02T00:56:43.441Z,78.54
2023-02-02T00:57:45.280Z,78.54
2023-02-02T00:58:47.773Z,78.59
2023-02-02T00:59:49.345Z,78.56
2023-02-02T01:00:52.794Z,78.71
2023-02-02T01:01:54.415Z,78.66
2023-02-02T01:02:57.844Z,78.64
2023-02-02T01:03:59.834Z,78.98
2023-02-02T01:05:04.939Z,79.03
2023-02-02T01:06:06.572Z,79.08
2023-02-02T01:07:10.412Z,78.93
2023-02-02T01:08:11.959Z,79.17
2023-02-02T01:09:14.530Z,78.94
2023-02-02T01:10:17.588Z,79.01
2023-02-02T01:11:20.697Z,79.04
2023-02-02T01:12:22.215Z,79.17
2023-02-02T01:13:24.885Z,79.13
2023-02-02T01:14:26.632Z,79.24
2023-02-02T01:15:30.462Z,79.07
2023-02-02T01:16:32.353Z,79.07
2023-02-02T01:17:35.227Z,79.12
2023-02-02T01:18:37.809Z,79.26
2023-02-02T01:19:40.780Z,79.11
2023-02-02T01:20:42.688Z,79.03
2023-02-02T01:21:45.193Z,79.08
2023-02-02T01:22:48.115Z,79.09
2023-02-02T01:23:50.925Z,79.20
2023-02-02T01:24:52.480Z,79.10
2023-02-02T01:25:55.770Z,79.21
2023-02-02T01:26:57.335Z,79.14
2023-02-02T01:28:00.244Z,79.37
2023-02-02T01:29:01.800Z,79.33
2023-02-02T01:30:04.876Z,79.07
2023-02-02T01:31:08.763Z,79.22
2023-02-02T01:32:11.568Z,79.31
2023-02-02T01:33:13.291Z,79.37
2023-02-02T01:34:16.113Z,79.44
2023-02-02T01:35:17.671Z,79.52
2023-02-02T01:36:23.444Z,79.35
2023-02-02T01:37:25.036Z,79.59
2023-02-02T01:38:28.825Z,79.59
2023-02-02T01:39:32.687Z,79.46
2023-02-02T01:40:35.100Z,79.72
2023-02-02T01:41:37.610Z,79.67
2023-02-02T01:42:39.370Z,79.52
2023-02-02T01:43:55.962Z,79.51
2023-02-02T01:45:16.880Z,79.66
2023-02-02T01:46:21.602Z,79.77
2023-02-02T01:47:26.935Z,79.63
2023-02-02T01:48:41.411Z,79.90
2023-02-02T01:49:43.038Z,79.81
2023-02-02T01:50:45.603Z,79.99
2023-02-02T01:51:49.935Z,79.66
2023-02-02T01:52:55.519Z,79.85
2023-02-02T01:53:59.780Z,79.94
2023-02-02T01:55:08.256Z,79.77
2023-02-02T01:56:15.494Z,79.79
2023-02-02T01:57:26.458Z,79.87
2023-02-02T01:58:30.175Z,79.95
2023-02-02T01:59:33.760Z,79.91
2023-02-02T02:00:36.076Z,79.97
2023-02-02T02:01:38.586Z,80.10
2023-02-02T02:02:44.168Z,80.05
2023-02-02T02:03:46.767Z,79.92
2023-02-02T02:04:50.253Z,79.83
2023-02-02T02:05:55.661Z,79.85
2023-02-02T02:06:58.070Z,80.06
2023-02-02T02:08:10.160Z,79.97
2023-02-02T02:09:14.089Z,80.11
2023-02-02T02:10:16.877Z,80.01
2023-02-02T02:11:20.074Z,80.07
2023-02-02T02:12:21.876Z,79.91
2023-02-02T02:13:47.942Z,80.03
2023-02-02T02:15:09.841Z,80.11
2023-02-02T02:16:19.885Z,80.10
2023-02-02T02:17:41.013Z,80.12
2023-02-02T02:18:51.440Z,80.10
2023-02-02T02:20:52.903Z,80.07
2023-02-02T02:22:18.276Z,80.24
2023-02-02T02:24:26.299Z,80.09
2023-02-02T02:26:12.711Z,80.20
2023-02-02T02:27:41.013Z,80.39
2023-02-02T02:29:03.440Z,80.34
2023-02-02T02:30:34.561Z,80.40
2023-02-02T02:32:05.741Z,80.39
2023-02-02T02:33:12.693Z,80.65
2023-02-02T02:34:20.561Z,80.58
2023-02-02T02:35:32.518Z,80.47
2023-02-02T02:36:42.734Z,80.57
2023-02-02T02:37:51.116Z,80.70
2023-02-02T02:39:00.534Z,80.71
2023-02-02T02:40:09.118Z,80.91
2023-02-02T02:41:19.260Z,80.86
2023-02-02T02:42:25.352Z,80.88
2023-02-02T02:43:31.078Z,81.01
2023-02-02T02:44:34.648Z,80.83
2023-02-02T02:45:38.410Z,80.85
2023-02-02T02:46:40.934Z,81.10
2023-02-02T02:47:44.009Z,81.17
2023-02-02T02:48:46.959Z,80.92
2023-02-02T02:49:49.428Z,81.18
2023-02-02T02:50:52.043Z,81.26
2023-02-02T02:51:55.376Z,81.32
2023-02-02T02:53:04.243Z,81.12
2023-02-02T02:54:06.441Z,81.22
2023-02-02T02:55:11.739Z,81.24
2023-02-02T02:56:22.877Z,81.30
2023-02-02T02:57:53.879Z,81.20
2023-02-02T02:59:03.592Z,81.41
2023-02-02T03:00:22.083Z,80.99
2023-02-02T03:01:38.103Z,81.35
2023-02-02T03:02:46.585Z,81.32
2023-02-02T03:04:09.819Z,81.45
2023-02-02T03:05:24.851Z,81.57
2023-02-02T03:06:35.909Z,81.58
2023-02-02T03:07:42.674Z,81.58
2023-02-02T03:08:49.465Z,81.51
2023-02-02T03:09:52.967Z,81.56
2023-02-02T03:10:57.604Z,81.83
2023-02-02T03:11:59.736Z,81.63
2023-02-02T03:13:02.612Z,81.75
2023-02-02T03:14:04.707Z,81.71
2023-02-02T03:15:08.047Z,81.84
2023-02-02T03:16:10.103Z,81.97
2023-02-02T03:17:12.648Z,81.75
2023-02-02T03:18:17.018Z,81.86
2023-02-02T03:19:20.923Z,81.92
2023-02-02T03:20:22.515Z,82.05
2023-02-02T03:21:25.028Z,81.96
2023-02-02T03:22:26.569Z,81.96
2023-02-02T03:23:29.410Z,81.96
2023-02-02T03:24:30.933Z,82.17
2023-02-02T03:25:33.663Z,82.17
2023-02-02T03:26:35.891Z,81.97
2023-02-02T03:27:39.180Z,82.19
2023-02-02T03:28:41.941Z,82.01
2023-02-02T03:29:43.585Z,81.98
2023-02-02T03:30:47.767Z,82.29
2023-02-02T03:31:50.110Z,81.96
2023-02-02T03:32:53.795Z,82.06
2023-02-02T03:33:55.752Z,82.20
2023-02-02T03:34:59.577Z,82.05
2023-02-02T03:36:01.091Z,82.21
2023-02-02T03:37:03.593Z,82.25
2023-02-02T03:38:05.223Z,81.86
2023-02-02T03:39:07.730Z,82.12
2023-02-02T03:40:10.638Z,82.00
2023-02-02T03:41:13.186Z,81.90
2023-02-02T03:42:14.745Z,82.13
2023-02-02T03:43:21.466Z,82.13
2023-02-02T03:44:24.067Z,82.14
2023-02-02T03:45:27.287Z,82.24
2023-02-02T03:46:29.905Z,82.17
2023-02-02T03:47:31.812Z,82.15
2023-02-02T03:48:36.778Z,82.20
2023-02-02T03:49:38.372Z,82.17
2023-02-02T03:50:42.317Z,82.11
2023-02-02T03:51:44.260Z,82.42
2023-02-02T03:52:46.827Z,82.48
2023-02-02T03:53:48.385Z,82.15
2023-02-02T03:54:51.107Z,82.37
2023-02-02T03:55:52.616Z,82.42
2023-02-02T03:56:55.113Z,82.31
2023-02-02T03:57:56.640Z,82.49
2023-02-02T03:58:59.123Z,82.42
2023-02-02T04:00:00.644Z,82.38
2023-02-02T04:01:05.012Z,82.51
2023-02-02T04:02:06.518Z,82.52
2023-02-02T04:03:09.271Z,82.58
2023-02-02T04:04:10.908Z,82.63
2023-02-02T04:05:13.435Z,82.74
2023-02-02T04:06:16.327Z,82.64
2023-02-02T04:07:18.952Z,82.86
2023-02-02T04:08:20.723Z,82.69
2023-02-02T04:09:23.948Z,82.80
2023-02-02T04:10:25.495Z,82.77
2023-02-02T04:11:28.155Z,82.99
2023-02-02T04:12:29.801Z,82.94
2023-02-02T04:13:32.326Z,82.97
2023-02-02T04:14:33.862Z,83.07
2023-02-02T04:15:36.578Z,83.11
2023-02-02T04:16:38.141Z,83.00
2023-02-02T04:17:40.620Z,82.88
2023-02-02T04:18:42.202Z,83.17
2023-02-02T04:19:44.715Z,82.92
2023-02-02T04:20:46.244Z,82.97
2023-02-02T04:21:50.130Z,82.87
2023-02-02T04:22:51.697Z,82.69
2023-02-02T04:23:54.625Z,83.01
2023-02-02T04:24:56.301Z,82.66
2023-02-02T04:25:59.360Z,83.00
2023-02-02T04:27:00.895Z,82.96
2023-02-02T04:28:03.435Z,82.87
2023-02-02T04:29:05.043Z,82.93
2023-02-02T04:30:08.882Z,82.94
2023-02-02T04:31:10.503Z,82.69
2023-02-02T04:32:13.160Z,82.84
2023-02-02T04:33:14.715Z,82.80
2023-02-02T04:34:17.924Z,82.88
2023-02-02T04:35:19.897Z,82.57
2023-02-02T04:36:22.380Z,82.82
2023-02-02T04:37:25.220Z,82.73
2023-02-02T04:38:27.708Z,82.58
2023-02-02T04:39:31.000Z,82.71
2023-02-02T04:40:33.483Z,82.57
2023-02-02T04:41:35.103Z,82.78
2023-02-02T04:42:37.596Z,82.49
2023-02-02T04:43:39.181Z,82.47
2023-02-02T04:44:41.801Z,82.37
2023-02-02T04:45:43.525Z,82.57
2023-02-02T04:46:46.464Z,82.43
2023-02-02T04:47:48.037Z,82.45
2023-02-02T04:48:50.576Z,82.39
2023-02-02T04:49:52.091Z,82.31
2023-02-02T04:50:59.500Z,82.43
2023-02-02T04:52:01.015Z,82.28
2023-02-02T04:53:05.659Z,82.43
2023-02-02T04:54:07.851Z,82.26
2023-02-02T04:55:10.701Z,82.19
2023-02-02T04:56:14.548Z,82.27
2023-02-02T04:57:17.584Z,82.26
2023-02-02T04:58:19.501Z,82.15
2023-02-02T04:59:22.020Z,82.29
2023-02-02T05:00:24.798Z,82.06
2023-02-02T05:01:30.688Z,82.04
2023-02-02T05:02:36.575Z,82.19
2023-02-02T05:03:38.567Z,82.11
2023-02-02T05:04:41.092Z,82.22
2023-02-02T05:05:42.634Z,81.96
2023-02-02T05:06:45.121Z,82.22
2023-02-02T05:07:46.725Z,82.10
2023-02-02T05:08:50.852Z,82.10
2023-02-02T05:09:52.367Z,81.97
2023-02-02T05:10:55.536Z,82.08
2023-02-02T05:11:57.438Z,82.11
2023-02-02T05:13:07.853Z,82.01
2023-02-02T05:14:10.113Z,81.82
2023-02-02T05:15:13.037Z,82.04
2023-02-02T05:16:15.162Z,81.97
2023-02-02T05:17:17.842Z,82.02
2023-02-02T05:18:19.460Z,81.94
2023-02-02T05:19:22.032Z,81.86
2023-02-02T05:20:23.684Z,81.94
2023-02-02T05:21:26.326Z,82.00
2023-02-02T05:22:27.870Z,81.81
2023-02-02T05:23:31.498Z,82.00
2023-02-02T05:24:34.447Z,81.88
2023-02-02T05:25:36.945Z,82.08
2023-02-02T05:26:38.645Z,81.98
2023-02-02T05:27:43.959Z,82.01
2023-02-02T05:28:45.546Z,82.07
2023-02-02T05:29:48.424Z,82.08
2023-02-02T05:30:50.425Z,81.99
2023-02-02T05:31:53.029Z,81.81
2023-02-02T05:32:54.559Z,82.01
2023-02-02T05:33:57.103Z,82.11
2023-02-02T05:34:58.628Z,81.76
2023-02-02T05:36:01.215Z,81.79
2023-02-02T05:37:03.471Z,81.81
2023-02-02T05:38:06.014Z,81.96
2023-02-02T05:39:07.563Z,81.92
2023-02-02T05:40:12.627Z,81.84
2023-02-02T05:41:14.144Z,81.67
2023-02-02T05:42:16.764Z,81.70
2023-02-02T05:43:19.372Z,81.79
2023-02-02T05:44:23.427Z,81.72
2023-02-02T05:45:25.302Z,81.86
2023-02-02T05:46:28.193Z,81.71
2023-02-02T05:47:29.791Z,81.62
2023-02-02T05:48:32.437Z,81.77
2023-02-02T05:49:33.968Z,81.58
2023-02-02T05:50:36.596Z,81.50
2023-02-02T05:51:42.616Z,81.57
2023-02-02T05:52:46.522Z,81.63
2023-02-02T05:53:48.149Z,81.63
2023-02-02T05:54:50.841Z,81.67
2023-02-02T05:55:56.900Z,81.41
2023-02-02T05:57:01.141Z,81.61
2023-02-02T05:58:03.569Z,81.40
2023-02-02T05:59:07.382Z,81.48
2023-02-02T06:00:10.683Z,81.51
2023-02-02T06:01:19.711Z,81.37
2023-02-02T06:02:21.384Z,81.30
2023-02-02T06:03:24.012Z,81.55
2023-02-02T06:04:25.722Z,81.37
2023-02-02T06:05:28.234Z,81.16
2023-02-02T06:06:29.802Z,81.36
2023-02-02T06:07:32.307Z,81.47
2023-02-02T06:08:34.332Z,81.51
2023-02-02T06:09:36.878Z,81.37
2023-02-02T06:10:48.481Z,81.41
2023-02-02T06:11:52.635Z,81.22
2023-02-02T06:12:54.458Z,81.36
2023-02-02T06:13:57.442Z,81.59
2023-02-02T06:14:59.010Z,81.32
2023-02-02T06:16:01.567Z,81.40
2023-02-02T06:17:03.167Z,81.18
2023-02-02T06:18:08.251Z,81.20
2023-02-02T06:19:09.906Z,81.45
2023-02-02T06:20:13.799Z,81.01
2023-02-02T06:21:15.362Z,81.37
2023-02-02T06:22:17.856Z,81.32
2023-02-02T06:23:19.413Z,81.22
2023-02-02T06:24:21.947Z,81.41
2023-02-02T06:25:24.001Z,81.40
2023-02-02T06:26:27.361Z,81.29
2023-02-02T06:27:30.332Z,81.33
2023-02-02T06:28:33.147Z,81.25
2023-02-02T06:29:34.716Z,80.96
2023-02-02T06:30:37.255Z,81.35
2023-02-02T06:31:39.394Z,81.33
2023-02-02T06:32:42.004Z,81.42
2023-02-02T06:33:43.757Z,81.18
2023-02-02T06:34:46.395Z,81.34
2023-02-02T06:35:47.946Z,81.28
2023-02-02T06:36:50.989Z,81.33
2023-02-02T06:37:52.775Z,81.40
2023-02-02T06:38:57.824Z,81.29
2023-02-02T06:39:59.382Z,81.33
2023-02-02T06:41:02.716Z,81.29
2023-02-02T06:42:19.262Z,81.57
2023-02-02T06:43:24.978Z,81.43
2023-02-02T06:44:27.482Z,81.45
2023-02-02T06:45:31.046Z,81.54
2023-02-02T06:46:43.852Z,81.70
2023-02-02T06:47:45.603Z,81.77
2023-02-02T06:48:48.455Z,81.61
2023-02-02T06:49:51.067Z,81.76
2023-02-02T06:50:53.869Z,81.81
2023-02-02T06:51:56.495Z,81.72
2023-02-02T06:52:58.192Z,81.81
2023-02-02T06:54:03.147Z,81.91
2023-02-02T06:55:07.724Z,81.97
2023-02-02T06:56:14.122Z,82.05
2023-02-02T06:57:15.904Z,82.12
2023-02-02T06:58:19.576Z,82.03
2023-02-02T06:59:24.582Z,82.02
2023-02-02T07:00:28.766Z,82.16
2023-02-02T07:01:32.653Z,82.32
2023-02-02T07:02:35.667Z,82.04
2023-02-02T07:03:38.232Z,82.31
2023-02-02T07:04:40.927Z,82.16
2023-02-02T07:05:42.544Z,82.23
2023-02-02T07:06:45.179Z,82.20
2023-02-02T07:07:46.795Z,82.27
2023-02-02T07:08:57.637Z,82.32
2023-02-02T07:10:05.548Z,82.06
2023-02-02T07:11:09.353Z,82.42
2023-02-02T07:12:19.265Z,82.17
2023-02-02T07:13:21.649Z,82.17
2023-02-02T07:14:25.507Z,82.34
2023-02-02T07:15:27.154Z,82.45
2023-02-02T07:16:29.754Z,82.32
2023-02-02T07:17:31.353Z,82.36
2023-02-02T07:18:33.850Z,82.37
2023-02-02T07:19:35.563Z,82.31
2023-02-02T07:20:38.077Z,82.52
2023-02-02T07:21:39.830Z,82.60
2023-02-02T07:22:42.942Z,82.54
2023-02-02T07:23:44.512Z,82.52
2023-02-02T07:24:47.047Z,82.44
2023-02-02T07:25:48.594Z,82.39
2023-02-02T07:26:51.164Z,82.55
2023-02-02T07:27:53.405Z,82.51
2023-02-02T07:28:56.573Z,82.61
2023-02-02T07:29:59.436Z,82.49
2023-02-02T07:31:02.641Z,82.61
2023-02-02T07:32:04.641Z,82.45
2023-02-02T07:33:07.165Z,82.59
2023-02-02T07:34:10.520Z,82.81
2023-02-02T07:35:12.975Z,82.44
2023-02-02T07:36:17.403Z,82.68
2023-02-02T07:37:19.027Z,82.63
2023-02-02T07:38:22.601Z,82.86
2023-02-02T07:39:24.264Z,82.71
2023-02-02T07:40:26.952Z,82.85
2023-02-02T07:41:28.489Z,82.88
2023-02-02T07:42:31.019Z,82.73
2023-02-02T07:43:34.341Z,82.85
2023-02-02T07:44:36.892Z,82.83
2023-02-02T07:45:40.392Z,82.76
2023-02-02T07:46:43.474Z,83.13
2023-02-02T07:47:45.015Z,82.85
2023-02-02T07:48:48.644Z,83.16
2023-02-02T07:49:50.321Z,83.13
2023-02-02T07:50:53.486Z,82.84
2023-02-02T07:51:56.376Z,82.96
2023-02-02T07:52:59.105Z,83.01
2023-02-02T07:54:02.255Z,82.96
2023-02-02T07:55:14.531Z,82.98
2023-02-02T07:56:19.655Z,83.07
2023-02-02T07:57:21.189Z,83.09
2023-02-02T07:58:23.717Z,83.21
2023-02-02T07:59:25.527Z,83.19
2023-02-02T08:00:29.438Z,83.20
2023-02-02T08:01:34.996Z,83.04
2023-02-02T08:02:38.834Z,83.40
2023-02-02T08:03:42.766Z,83.45
2023-02-02T08:04:44.412Z,83.47
2023-02-02T08:05:46.925Z,83.33
2023-02-02T08:06:49.430Z,83.26
2023-02-02T08:07:51.065Z,83.39
2023-02-02T08:08:53.555Z,83.59
2023-02-02T08:09:55.063Z,83.63
2023-02-02T08:10:57.590Z,83.71
2023-02-02T08:12:01.628Z,83.57
2023-02-02T08:13:04.859Z,83.96
2023-02-02T08:14:13.077Z,83.71
2023-02-02T08:15:16.051Z,83.73
2023-02-02T08:16:19.512Z,83.86
2023-02-02T08:17:23.877Z,83.81
2023-02-02T08:18:26.492Z,83.85
2023-02-02T08:19:28.980Z,84.09
2023-02-02T08:20:31.735Z,83.88
2023-02-02T08:21:35.165Z,84.04
2023-02-02T08:22:39.182Z,84.28
2023-02-02T08:23:43.114Z,84.47
2023-02-02T08:24:46.642Z,84.22
2023-02-02T08:25:48.801Z,84.55
2023-02-02T08:26:52.190Z,84.57
2023-02-02T08:28:05.966Z,84.49
2023-02-02T08:29:10.024Z,84.47
2023-02-02T08:30:12.753Z,84.50
2023-02-02T08:31:18.778Z,84.65
2023-02-02T08:32:22.653Z,84.54
2023-02-02T08:33:24.432Z,84.59
2023-02-02T08:34:26.957Z,84.75
2023-02-02T08:35:28.619Z,84.61
2023-02-02T08:36:31.930Z,84.65
2023-02-02T08:37:33.453Z,84.84
2023-02-02T08:38:36.235Z,84.71
2023-02-02T08:39:38.901Z,84.85
2023-02-02T08:40:41.431Z,84.90
2023-02-02T08:41:45.217Z,84.99
2023-02-02T08:42:47.499Z,84.95
2023-02-02T08:43:50.830Z,84.98
2023-02-02T08:46:04.383Z,84.87
2023-02-02T08:46:18.803Z,84.88
2023-02-02T08:47:23.398Z,84.88
2023-02-02T08:48:25.091Z,85.18
2023-02-02T08:49:27.868Z,85.05
2023-02-02T08:50:30.351Z,85.19
2023-02-02T08:51:32.893Z,85.11
2023-02-02T08:52:35.413Z,85.35
2023-02-02T08:53:36.965Z,85.29
2023-02-02T08:54:39.521Z,85.39
2023-02-02T08:55:41.031Z,85.46
2023-02-02T08:56:43.675Z,85.52
2023-02-02T08:57:45.257Z,85.40
2023-02-02T08:58:49.192Z,85.39
2023-02-02T08:59:51.368Z,85.32
2023-02-02T09:00:55.355Z,85.49
2023-02-02T09:01:57.959Z,85.54
2023-02-02T09:03:00.859Z,85.32
2023-02-02T09:04:05.476Z,85.55
2023-02-02T09:05:07.641Z,85.58
2023-02-02T09:06:12.139Z,85.70
2023-02-02T09:07:16.076Z,85.66
2023-02-02T09:08:18.905Z,85.51
2023-02-02T09:09:23.942Z,85.68
2023-02-02T09:10:25.868Z,85.59
2023-02-02T09:11:31.389Z,85.59
2023-02-02T09:12:34.207Z,85.54
2023-02-02T09:13:40.354Z,86.00
2023-02-02T09:14:42.888Z,85.90
2023-02-02T09:15:52.743Z,85.76
2023-02-02T09:16:55.342Z,85.84
2023-02-02T09:17:57.155Z,85.99
2023-02-02T09:19:01.010Z,85.80
2023-02-02T09:20:04.615Z,85.88
2023-02-02T09:21:09.574Z,85.73
2023-02-02T09:22:12.048Z,85.78
2023-02-02T09:23:13.585Z,85.99
2023-02-02T09:24:16.135Z,86.23
2023-02-02T09:25:17.659Z,85.93
2023-02-02T09:26:22.141Z,85.99
2023-02-02T09:27:25.440Z,86.22
2023-02-02T09:28:28.416Z,86.12
2023-02-02T09:29:30.939Z,86.20
2023-02-02T09:30:33.426Z,86.04
2023-02-02T09:31:37.719Z,86.18
2023-02-02T09:32:41.202Z,86.10
2023-02-02T09:33:44.424Z,86.35
2023-02-02T09:34:48.523Z,86.07
2023-02-02T09:35:50.031Z,86.24
2023-02-02T09:36:54.165Z,86.23
2023-02-02T09:37:56.691Z,86.23
2023-02-02T09:38:59.230Z,86.34
2023-02-02T09:40:01.817Z,86.32
2023-02-02T09:41:24.754Z,86.28
2023-02-02T09:42:40.721Z,86.44
2023-02-02T09:44:01.147Z,86.32
2023-02-02T09:45:14.477Z,86.29
2023-02-02T09:46:28.566Z,86.34
2023-02-02T09:47:51.590Z,86.29
2023-02-02T09:49:01.127Z,86.44
2023-02-02T09:50:12.163Z,86.50
2023-02-02T09:51:18.705Z,86.40
2023-02-02T09:52:25.931Z,86.35
2023-02-02T09:53:46.036Z,86.42
2023-02-02T09:55:01.457Z,86.50
2023-02-02T09:56:10.471Z,86.74
2023-02-02T09:57:18.824Z,86.48
2023-02-02T09:58:25.119Z,86.40
2023-02-02T09:59:31.869Z,86.52
2023-02-02T10:00:38.297Z,86.55
2023-02-02T10:01:44.766Z,86.68
2023-02-02T10:02:49.923Z,86.61
2023-02-02T10:04:01.607Z,86.66
2023-02-02T10:05:14.525Z,86.61
2023-02-02T10:06:31.627Z,86.50
2023-02-02T10:07:38.414Z,86.41
2023-02-02T10:08:46.724Z,86.52
2023-02-02T10:09:54.722Z,86.64
2023-02-02T10:10:57.265Z,86.58
2023-02-02T10:12:06.901Z,86.52
2023-02-02T10:13:16.500Z,86.52
2023-02-02T10:14:25.075Z,86.35
2023-02-02T10:15:35.965Z,86.44
2023-02-02T10:16:40.551Z,86.67
2023-02-02T10:17:48.693Z,86.66
2023-02-02T10:18:57.294Z,86.67
2023-02-02T10:20:05.932Z,86.40
2023-02-02T10:21:30.023Z,86.60
2023-02-02T10:22:35.352Z,86.66
2023-02-02T10:23:47.874Z,86.52
2023-02-02T10:24:51.840Z,86.72
2023-02-02T10:26:03.111Z,86.50
2023-02-02T10:27:09.780Z,86.69
2023-02-02T10:28:19.444Z,86.57
2023-02-02T10:29:48.097Z,86.59
2023-02-02T10:31:00.297Z,86.50
2023-02-02T10:32:12.762Z,86.48
2023-02-02T10:33:28.644Z,86.24
2023-02-02T10:34:37.079Z,86.38
2023-02-02T10:35:46.299Z,86.36
2023-02-02T10:37:03.559Z,86.49
2023-02-02T10:38:18.299Z,86.37
2023-02-02T10:39:33.391Z,86.22
2023-02-02T10:40:48.517Z,86.33
2023-02-02T10:42:05.776Z,86.18
2023-02-02T10:43:45.874Z,86.02
2023-02-02T10:44:51.910Z,86.02
2023-02-02T10:45:54.625Z,85.90
2023-02-02T10:47:01.407Z,85.84
2023-02-02T10:48:05.664Z,85.91
2023-02-02T10:49:19.041Z,85.90
2023-02-02T10:50:23.583Z,85.95
2023-02-02T10:51:28.871Z,85.96
2023-02-02T10:52:36.836Z,85.87
2023-02-02T10:53:38.790Z,85.74
2023-02-02T10:54:57.214Z,85.76
2023-02-02T10:56:05.872Z,85.55
2023-02-02T10:57:13.456Z,85.79
2023-02-02T10:58:25.193Z,85.79
2023-02-02T10:59:32.998Z,85.65
2023-02-02T11:00:42.191Z,85.64
2023-02-02T11:01:54.933Z,85.64
2023-02-02T11:02:58.879Z,85.36
2023-02-02T11:04:19.236Z,85.41
2023-02-02T11:05:41.362Z,85.32
2023-02-02T11:06:53.251Z,85.13
2023-02-02T11:07:57.624Z,85.11
2023-02-02T11:09:01.127Z,85.25
2023-02-02T11:10:02.853Z,85.25
2023-02-02T11:11:13.276Z,85.30
2023-02-02T11:12:24.799Z,85.07
2023-02-02T11:13:30.435Z,84.96
2023-02-02T11:14:45.486Z,84.79
2023-02-02T11:15:48.475Z,84.66
2023-02-02T11:17:02.396Z,84.82
2023-02-02T11:18:16.281Z,84.53
2023-02-02T11:19:24.584Z,84.69
2023-02-02T11:20:34.320Z,84.80
2023-02-02T11:21:38.487Z,84.69
2023-02-02T11:22:41.055Z,84.50
2023-02-02T11:23:52.786Z,84.52
2023-02-02T11:24:56.466Z,84.38
2023-02-02T11:26:01.650Z,84.43
2023-02-02T11:27:07.872Z,84.37
2023-02-02T11:28:19.721Z,84.25
2023-02-02T11:29:27.827Z,84.24
2023-02-02T11:30:34.054Z,84.32
2023-02-02T11:31:46.807Z,84.01
2023-02-02T11:32:50.777Z,84.19
2023-02-02T11:33:52.456Z,84.16
2023-02-02T11:35:18.633Z,83.95
2023-02-02T11:36:22.767Z,84.11
2023-02-02T11:37:37.314Z,84.08
2023-02-02T11:38:41.453Z,83.91
2023-02-02T11:39:44.465Z,83.86
2023-02-02T11:40:53.460Z,84.01
2023-02-02T11:42:07.666Z,83.77
2023-02-02T11:43:19.828Z,83.60
2023-02-02T11:44:26.410Z,83.64
2023-02-02T11:45:35.202Z,83.51
2023-02-02T11:46:39.696Z,83.65
2023-02-02T11:47:42.287Z,83.48
2023-02-02T11:48:53.731Z,83.39
2023-02-02T11:49:57.856Z,83.30
2023-02-02T11:51:03.711Z,83.16
2023-02-02T11:52:15.689Z,83.12
2023-02-02T11:53:24.872Z,83.07
2023-02-02T11:54:30.261Z,83.09
2023-02-02T11:55:45.204Z,83.31
2023-02-02T11:56:52.707Z,83.38
2023-02-02T11:58:20.247Z,83.13
2023-02-02T11:59:34.507Z,83.04
2023-02-02T12:00:46.954Z,82.84
2023-02-02T12:01:49.479Z,83.14
2023-02-02T12:02:51.001Z,82.97
2023-02-02T12:03:54.527Z,82.83
2023-02-02T12:05:13.708Z,82.93
2023-02-02T12:06:21.230Z,82.79
2023-02-02T12:07:28.462Z,82.71
2023-02-02T12:08:31.656Z,82.45
2023-02-02T12:09:34.549Z,82.57
2023-02-02T12:10:43.108Z,82.51
2023-02-02T12:12:00.047Z,82.29
2023-02-02T12:13:08.465Z,82.17
2023-02-02T12:14:24.679Z,82.29
2023-02-02T12:15:43.594Z,82.09
2023-02-02T12:17:12.208Z,82.13
2023-02-02T12:18:31.574Z,82.08
2023-02-02T12:20:02.499Z,82.06
2023-02-02T12:21:22.432Z,82.02
2023-02-02T12:22:39.815Z,82.05
2023-02-02T12:23:54.348Z,81.97
2023-02-02T12:25:01.536Z,81.76
2023-02-02T12:26:15.766Z,82.09
2023-02-02T12:27:31.318Z,81.81
2023-02-02T12:28:50.168Z,81.83
2023-02-02T12:30:10.486Z,81.83
2023-02-02T12:31:26.345Z,81.69
2023-02-02T12:32:45.693Z,81.54
2023-02-02T12:33:55.946Z,81.65
2023-02-02T12:35:27.713Z,81.42
2023-02-02T12:36:43.932Z,81.37
2023-02-02T12:37:58.761Z,81.25
2023-02-02T12:39:24.549Z,81.33
2023-02-02T12:40:42.949Z,81.18
2023-02-02T12:42:15.677Z,80.72
2023-02-02T12:45:59.016Z,80.91
2023-02-02T12:47:14.348Z,80.74
2023-02-02T12:48:32.717Z,80.87
2023-02-02T12:49:47.602Z,80.77
2023-02-02T12:51:05.041Z,80.58
2023-02-02T12:52:17.826Z,80.72
2023-02-02T12:53:32.223Z,80.55
2023-02-02T12:54:59.162Z,80.64
2023-02-02T12:56:10.220Z,80.43
2023-02-02T12:57:20.123Z,80.38
2023-02-02T12:58:33.406Z,80.43
2023-02-02T12:59:55.073Z,80.11
2023-02-02T13:01:13.296Z,80.39
2023-02-02T13:02:28.878Z,80.31
2023-02-02T13:03:42.420Z,80.22
2023-02-02T13:05:02.030Z,80.16
2023-02-02T13:06:20.364Z,80.21
2023-02-02T13:07:36.951Z,80.09
2023-02-02T13:08:49.292Z,80.20
2023-02-02T13:10:02.814Z,80.34
2023-02-02T13:11:29.684Z,80.05
2023-02-02T13:12:38.573Z,79.91
2023-02-02T13:13:42.470Z,79.99
2023-02-02T13:14:47.996Z,79.86
2023-02-02T13:15:56.498Z,79.83
2023-02-02T13:17:08.704Z,79.88
2023-02-02T13:18:15.245Z,79.72
2023-02-02T13:19:25.756Z,79.68
2023-02-02T13:20:38.709Z,79.66
2023-02-02T13:21:43.938Z,79.86
2023-02-02T13:22:50.527Z,79.73
2023-02-02T13:23:56.375Z,79.94
2023-02-02T13:25:04.035Z,79.89
2023-02-02T13:26:12.740Z,79.71
2023-02-02T13:27:19.358Z,79.81
2023-02-02T13:28:36.994Z,80.02
2023-02-02T13:29:47.860Z,79.93
2023-02-02T13:30:53.258Z,80.01
2023-02-02T13:32:00.782Z,80.18
2023-02-02T13:33:19.417Z,80.07
2023-02-02T13:34:25.092Z,80.16
2023-02-02T13:35:32.117Z,80.14
2023-02-02T13:36:38.812Z,80.10
2023-02-02T13:37:50.538Z,80.07
2023-02-02T13:38:56.781Z,80.27
2023-02-02T13:40:03.654Z,79.96
2023-02-02T13:41:17.146Z,79.94
2023-02-02T13:42:28.052Z,80.28
2023-02-02T13:43:39.605Z,80.37
2023-02-02T13:44:48.305Z,80.23
2023-02-02T13:46:01.667Z,80.30
2023-02-02T13:47:09.133Z,80.29
2023-02-02T13:48:23.557Z,80.49
2023-02-02T13:49:30.208Z,80.32
2023-02-02T13:50:44.065Z,80.39
2023-02-02T13:52:09.951Z,80.50
2023-02-02T13:53:39.512Z,80.37
2023-02-02T13:55:18.891Z,80.31
2023-02-02T13:56:38.522Z,80.25
2023-02-02T13:59:36.777Z,80.35
2023-02-02T14:00:45.594Z,80.52
2023-02-02T14:01:53.290Z,80.29
2023-02-02T14:02:57.562Z,80.50
2023-02-02T14:04:02.238Z,80.66
2023-02-02T14:05:07.281Z,80.77
2023-02-02T14:06:22.005Z,80.83
2023-02-02T14:07:42.392Z,81.03
2023-02-02T14:08:48.059Z,80.98
2023-02-02T14:09:50.716Z,81.29
2023-02-02T14:10:59.105Z,81.07
2023-02-02T14:12:04.334Z,81.27
2023-02-02T14:13:30.441Z,81.46
2023-02-02T14:14:33.421Z,81.47
2023-02-02T14:15:40.960Z,81.59
2023-02-02T14:16:51.752Z,81.48
2023-02-02T14:17:55.383Z,82.00
2023-02-02T14:18:59.562Z,81.81
2023-02-02T14:20:06.492Z,81.94